Time;durP1;ratioP1;P1;durP2;ratioP2;P2;SDS_P1;SDS_P2;PMS_P1;PMS_P2;Temp;Humidity;BMP_temperature;BMP_pressure;BME280_temperature;BME280_humidity;BME280_pressure;Samples;Min_cycle;Max_cycle;Signal;HPM_P1;HPM_P2
2022/02/16 03:38:55;;;;;;;5.33;2.90;;;6.10;99.90;;;;;;4959734;29;20809;-54
2022/02/16 03:41:25;;;;;;;3.43;1.73;;;6.10;99.90;;;;;;4961363;29;20943;-57
2022/02/16 03:43:52;;;;;;;5.47;2.37;;;6.10;99.90;;;;;;4961297;28;20478;-58
2022/02/16 03:46:18;;;;;;;3.47;2.30;;;6.10;99.90;;;;;;4961723;29;20454;-57
2022/02/16 03:48:46;;;;;;;7.23;2.23;;;6.10;99.90;;;;;;4961014;29;20489;-57
2022/02/16 03:51:13;;;;;;;2.80;1.90;;;6.10;99.90;;;;;;4960892;29;20523;-56
2022/02/16 03:53:40;;;;;;;2.60;2.10;;;6.10;99.90;;;;;;4961254;28;20452;-56
2022/02/16 03:56:08;;;;;;;3.93;2.10;;;6.20;99.90;;;;;;4962835;28;20637;-58
2022/02/16 03:58:34;;;;;;;2.77;2.00;;;6.20;99.90;;;;;;4963351;29;20902;-57
2022/02/16 04:01:01;;;;;;;2.60;2.13;;;6.20;99.90;;;;;;4962878;29;20464;-57
2022/02/16 04:03:28;;;;;;;7.57;2.70;;;6.20;99.90;;;;;;4962013;28;20447;-56
2022/02/16 04:05:55;;;;;;;2.43;1.60;;;6.20;99.90;;;;;;4961015;29;20472;-58
2022/02/16 04:08:21;;;;;;;5.97;2.37;;;6.20;99.90;;;;;;4960298;29;20798;-56
2022/02/16 04:10:50;;;;;;;2.23;1.93;;;6.20;99.90;;;;;;4961230;29;20495;-55
2022/02/16 04:13:18;;;;;;;2.10;1.87;;;6.30;99.90;;;;;;4960855;29;20432;-55
2022/02/16 04:15:44;;;;;;;2.60;1.87;;;6.30;99.90;;;;;;4961987;28;20485;-55
2022/02/16 04:18:11;;;;;;;3.17;2.23;;;6.30;99.90;;;;;;4964340;29;20470;-56
2022/02/16 04:20:38;;;;;;;2.10;1.90;;;6.30;99.90;;;;;;4967941;29;20445;-58
2022/02/16 04:23:05;;;;;;;3.23;2.83;;;6.40;99.90;;;;;;4967005;29;20463;-58
2022/02/16 04:25:32;;;;;;;4.03;2.00;;;6.30;99.90;;;;;;4963630;29;20546;-57
2022/02/16 04:28:01;;;;;;;4.63;2.37;;;6.40;99.90;;;;;;4964005;29;20479;-57
2022/02/16 04:30:29;;;;;;;4.97;2.70;;;6.40;99.90;;;;;;4963546;29;20489;-56
2022/02/16 04:32:55;;;;;;;4.20;2.27;;;6.50;99.90;;;;;;4963700;29;20533;-55
2022/02/16 04:35:22;;;;;;;2.53;2.10;;;6.50;99.90;;;;;;4963597;29;20461;-54
2022/02/16 04:37:49;;;;;;;3.07;2.27;;;6.50;99.90;;;;;;4963448;29;20471;-55
2022/02/16 04:40:16;;;;;;;4.73;2.23;;;6.60;99.90;;;;;;4963773;29;20447;-55
2022/02/16 04:42:42;;;;;;;3.43;2.10;;;6.60;99.90;;;;;;4963773;29;20453;-58
2022/02/16 04:45:10;;;;;;;2.60;1.90;;;6.70;99.90;;;;;;4963317;29;20477;-56
2022/02/16 04:47:38;;;;;;;5.77;2.03;;;6.70;99.90;;;;;;4963645;29;20449;-53
2022/02/16 04:50:07;;;;;;;3.23;2.13;;;6.70;99.90;;;;;;4964086;29;20506;-55
2022/02/16 04:52:35;;;;;;;5.20;2.47;;;6.70;99.90;;;;;;4963829;29;20461;-53
2022/02/16 04:55:03;;;;;;;2.20;1.70;;;6.80;99.90;;;;;;4963680;29;21103;-52
2022/02/16 04:57:30;;;;;;;3.77;2.13;;;6.80;99.90;;;;;;4963582;29;20439;-53
2022/02/16 04:59:58;;;;;;;5.00;2.30;;;6.80;99.90;;;;;;4963581;29;20468;-50
2022/02/16 05:02:25;;;;;;;3.90;3.10;;;6.90;99.90;;;;;;4963518;29;20533;-52
2022/02/16 05:04:54;;;;;;;3.20;1.67;;;6.90;99.90;;;;;;4963246;29;20541;-52
2022/02/16 05:07:20;;;;;;;9.77;2.63;;;7.20;99.90;;;;;;4962818;29;20477;-56
2022/02/16 05:09:47;;;;;;;3.83;2.20;;;7.10;99.90;;;;;;4963445;28;20499;-49
2022/02/16 05:12:14;;;;;;;3.30;2.37;;;7.10;99.90;;;;;;4962727;29;20470;-55
2022/02/16 05:14:41;;;;;;;2.50;2.10;;;7.10;99.90;;;;;;4962680;29;20931;-55
2022/02/16 05:17:10;;;;;;;5.07;2.13;;;7.10;99.90;;;;;;4963047;29;20518;-56
2022/02/16 05:19:36;;;;;;;5.80;2.10;;;7.10;99.90;;;;;;4963165;29;20443;-51
2022/02/16 05:22:05;;;;;;;3.33;2.43;;;7.10;99.90;;;;;;4963083;29;20458;-54
2022/02/16 05:24:31;;;;;;;2.70;1.87;;;7.10;99.90;;;;;;4963101;29;20968;-53
2022/02/16 05:26:58;;;;;;;2.33;1.80;;;7.10;99.90;;;;;;4962462;28;20947;-54
2022/02/16 05:29:25;;;;;;;3.70;2.93;;;7.10;99.90;;;;;;4963762;29;20495;-53
2022/02/16 05:31:52;;;;;;;4.93;2.33;;;7.10;99.90;;;;;;4964881;29;20474;-55
2022/02/16 05:34:18;;;;;;;2.10;1.40;;;7.10;99.90;;;;;;4963693;29;20476;-56
2022/02/16 05:36:45;;;;;;;10.50;2.70;;;7.10;99.90;;;;;;4962840;29;20435;-55
2022/02/16 05:39:14;;;;;;;2.13;1.90;;;7.10;99.90;;;;;;4962239;29;20490;-53
2022/02/16 05:41:40;;;;;;;2.70;1.90;;;7.10;99.90;;;;;;4962472;29;20464;-55
2022/02/16 05:44:08;;;;;;;2.20;1.53;;;7.10;99.90;;;;;;4962721;29;20459;-57
2022/02/16 05:46:34;;;;;;;7.33;2.30;;;7.10;99.90;;;;;;4962575;29;20461;-54
2022/02/16 05:49:01;;;;;;;2.27;2.03;;;7.20;99.90;;;;;;4962723;29;20455;-53
2022/02/16 05:51:28;;;;;;;5.83;1.70;;;7.20;99.90;;;;;;4961896;29;20551;-54
2022/02/16 05:53:55;;;;;;;3.03;1.90;;;7.10;99.90;;;;;;4962093;28;20458;-54
2022/02/16 05:56:23;;;;;;;5.17;2.00;;;7.20;99.90;;;;;;4961688;29;20507;-52
2022/02/16 05:58:49;;;;;;;1.60;1.47;;;7.20;99.90;;;;;;4962350;29;20482;-55
2022/02/16 06:01:16;;;;;;;3.80;2.00;;;7.20;99.90;;;;;;4962097;29;20813;-51
2022/02/16 06:03:44;;;;;;;2.53;2.00;;;7.20;99.90;;;;;;4961760;29;20459;-55
2022/02/16 06:06:11;;;;;;;2.60;1.90;;;7.10;99.90;;;;;;4961896;29;20466;-54
2022/02/16 06:08:37;;;;;;;5.83;1.80;;;7.10;99.90;;;;;;4961942;29;20479;-55
2022/02/16 06:11:04;;;;;;;2.00;1.90;;;7.00;99.90;;;;;;4962387;29;20582;-55
2022/02/16 06:13:32;;;;;;;3.43;2.27;;;7.00;99.90;;;;;;4962060;29;20477;-52
2022/02/16 06:15:59;;;;;;;3.50;1.87;;;7.00;99.90;;;;;;4962396;29;20456;-54
2022/02/16 06:18:25;;;;;;;1.57;1.47;;;7.00;99.90;;;;;;4962271;29;20445;-51
2022/02/16 06:20:52;;;;;;;3.57;1.57;;;7.00;99.90;;;;;;4962376;29;20519;-53
2022/02/16 06:23:20;;;;;;;2.43;1.90;;;7.00;99.90;;;;;;4961865;29;20535;-57
2022/02/16 06:25:47;;;;;;;3.13;1.93;;;6.90;99.90;;;;;;4961826;29;20462;-54
2022/02/16 06:28:14;;;;;;;3.10;1.93;;;6.90;99.90;;;;;;4961907;29;20451;-54
2022/02/16 06:30:42;;;;;;;2.80;1.50;;;6.90;99.90;;;;;;4961759;29;20532;-53
2022/02/16 06:33:10;;;;;;;1.80;1.40;;;6.90;99.90;;;;;;4963562;29;20452;-54
2022/02/16 06:35:37;;;;;;;2.10;1.73;;;6.90;99.90;;;;;;4974200;28;20467;-53
2022/02/16 06:38:06;;;;;;;2.10;1.67;;;7.00;99.90;;;;;;4966088;28;20517;-41
2022/02/16 06:40:33;;;;;;;3.83;2.10;;;6.90;99.90;;;;;;4967498;28;20439;-51
2022/02/16 06:42:59;;;;;;;3.47;2.43;;;6.90;99.90;;;;;;4966278;29;20484;-54
2022/02/16 06:45:26;;;;;;;2.93;1.87;;;6.90;99.90;;;;;;4968568;29;20451;-55
2022/02/16 06:47:54;;;;;;;4.00;2.97;;;6.90;99.90;;;;;;4969210;29;20599;-55
2022/02/16 06:50:21;;;;;;;2.37;2.10;;;7.00;99.90;;;;;;4968893;29;20571;-53
2022/02/16 06:52:48;;;;;;;1.70;1.47;;;6.90;99.90;;;;;;4967559;29;20481;-54
2022/02/16 06:55:17;;;;;;;2.03;1.83;;;6.90;99.90;;;;;;4967719;29;20449;-56
2022/02/16 06:57:43;;;;;;;2.60;1.93;;;7.00;99.90;;;;;;4967636;29;20477;-55
2022/02/16 07:00:11;;;;;;;1.90;1.80;;;7.00;99.90;;;;;;4967425;29;20439;-56
2022/02/16 07:02:43;;;;;;;3.60;1.70;;;7.00;99.90;;;;;;4967606;29;20508;-54
2022/02/16 07:05:11;;;;;;;6.40;2.00;;;6.90;99.90;;;;;;4966885;29;20435;-55
2022/02/16 07:07:38;;;;;;;2.40;1.90;;;6.90;99.90;;;;;;4966733;29;20462;-51
2022/02/16 07:10:05;;;;;;;2.33;1.80;;;6.90;99.90;;;;;;4965736;29;20544;-55
2022/02/16 07:12:32;;;;;;;2.50;2.30;;;6.90;99.90;;;;;;4965898;29;20450;-52
2022/02/16 07:14:59;;;;;;;3.73;2.27;;;7.00;99.90;;;;;;4966232;29;20522;-55
2022/02/16 07:17:26;;;;;;;1.83;1.40;;;6.90;99.90;;;;;;4966344;29;20893;-55
2022/02/16 07:19:52;;;;;;;2.70;1.63;;;6.90;99.90;;;;;;4965743;29;20454;-50
2022/02/16 07:22:21;;;;;;;2.37;1.70;;;6.90;99.90;;;;;;4965799;29;20512;-50
2022/02/16 07:24:47;;;;;;;2.70;1.97;;;6.90;99.90;;;;;;4966757;28;20498;-51
2022/02/16 07:27:14;;;;;;;3.53;1.90;;;6.90;99.90;;;;;;4965809;29;20468;-56
2022/02/16 07:29:41;;;;;;;1.67;1.53;;;6.80;99.90;;;;;;4966314;29;20445;-56
2022/02/16 07:32:08;;;;;;;1.80;1.67;;;6.80;99.90;;;;;;4966963;29;20473;-56
2022/02/16 07:34:37;;;;;;;1.90;1.40;;;6.80;99.90;;;;;;4966414;28;20468;-54
2022/02/16 07:37:04;;;;;;;2.07;1.70;;;6.80;99.90;;;;;;4966810;28;20474;-54
2022/02/16 07:39:32;;;;;;;4.10;1.70;;;6.80;99.90;;;;;;4966338;29;20481;-56
2022/02/16 07:41:59;;;;;;;2.03;1.50;;;6.80;99.90;;;;;;4966892;29;20429;-53
2022/02/16 07:44:26;;;;;;;4.40;1.70;;;6.80;99.90;;;;;;4967046;29;20916;-55
2022/02/16 07:46:53;;;;;;;3.60;1.43;;;6.80;99.90;;;;;;4966949;29;20486;-52
2022/02/16 07:49:20;;;;;;;2.87;2.00;;;6.80;99.90;;;;;;4966309;29;20465;-54
2022/02/16 07:51:46;;;;;;;2.43;1.70;;;6.90;99.90;;;;;;4967977;28;20497;-55
2022/02/16 07:54:13;;;;;;;1.70;1.60;;;6.90;99.90;;;;;;4969444;29;20458;-52
2022/02/16 07:56:42;;;;;;;1.37;1.07;;;6.90;99.90;;;;;;4969694;28;20449;-54
2022/02/16 07:59:09;;;;;;;1.83;1.33;;;7.00;99.90;;;;;;4969063;29;20737;-53
2022/02/16 08:01:35;;;;;;;2.47;1.53;;;7.10;99.90;;;;;;4970092;29;20793;-55
2022/02/16 08:07:00;;;;;;;3.23;2.13;;;7.20;99.90;;;;;;5164870;27;20902;-52
2022/02/16 08:09:27;;;;;;;1.90;1.30;;;7.20;99.90;;;;;;5164241;27;20441;-53
2022/02/16 08:11:54;;;;;;;2.13;1.37;;;7.30;99.90;;;;;;5163673;27;20444;-56
2022/02/16 08:14:21;;;;;;;2.50;1.30;;;7.30;99.90;;;;;;5164250;27;20438;-54
2022/02/16 08:16:47;;;;;;;1.77;1.40;;;7.20;99.90;;;;;;5164740;27;20836;-54
2022/02/16 08:19:14;;;;;;;1.40;1.13;;;7.20;99.90;;;;;;5164592;27;20438;-55
2022/02/16 08:21:42;;;;;;;1.57;1.17;;;7.20;99.90;;;;;;5165246;27;20470;-55
2022/02/16 08:24:12;;;;;;;1.30;0.90;;;7.10;99.90;;;;;;5165470;27;20462;-53
2022/02/16 08:26:39;;;;;;;2.20;1.70;;;7.10;99.90;;;;;;5163537;27;20481;-51
2022/02/16 08:29:06;;;;;;;1.70;1.27;;;7.20;99.90;;;;;;5163827;27;20801;-52
2022/02/16 08:31:32;;;;;;;1.00;0.80;;;7.20;99.90;;;;;;5163466;27;20787;-52
2022/02/16 08:33:59;;;;;;;1.70;1.00;;;7.30;99.90;;;;;;5163153;27;20486;-55
2022/02/16 08:36:26;;;;;;;2.27;1.10;;;7.40;99.90;;;;;;5163687;27;20467;-55
2022/02/16 08:38:52;;;;;;;1.60;0.90;;;7.40;99.90;;;;;;5163846;27;20523;-56
2022/02/16 08:41:20;;;;;;;1.40;1.17;;;7.40;99.90;;;;;;5163956;27;20514;-56
2022/02/16 08:43:47;;;;;;;5.50;1.50;;;7.40;99.90;;;;;;5162515;27;20441;-56
2022/02/16 08:46:14;;;;;;;2.40;0.93;;;7.40;99.90;;;;;;5162705;27;20655;-56
2022/02/16 08:48:41;;;;;;;1.93;1.03;;;7.50;99.90;;;;;;5163443;27;20842;-57
2022/02/16 08:51:08;;;;;;;1.60;1.00;;;7.50;99.90;;;;;;5163733;27;20432;-57
2022/02/16 08:53:35;;;;;;;1.83;0.90;;;7.40;99.90;;;;;;5163603;27;20461;-54
2022/02/16 08:56:03;;;;;;;2.27;1.63;;;7.40;99.90;;;;;;5163200;27;20505;-54
2022/02/16 08:58:31;;;;;;;5.10;1.50;;;7.40;99.90;;;;;;5162635;27;20462;-54
2022/02/16 09:00:58;;;;;;;4.60;2.70;;;7.50;99.90;;;;;;5162702;27;20465;-54
2022/02/16 09:03:27;;;;;;;2.57;1.47;;;7.50;99.90;;;;;;5162626;27;20448;-53
2022/02/16 09:05:54;;;;;;;1.63;1.13;;;7.60;99.90;;;;;;5162311;27;20826;-54
2022/02/16 09:08:21;;;;;;;2.57;1.90;;;7.60;99.90;;;;;;5162592;27;20486;-55
2022/02/16 09:10:48;;;;;;;2.73;1.70;;;7.70;99.90;;;;;;5162275;27;20442;-55
2022/02/16 09:13:15;;;;;;;2.60;1.00;;;7.70;99.90;;;;;;5161675;27;20447;-54
2022/02/16 09:15:46;;;;;;;1.67;1.13;;;7.80;99.90;;;;;;5161795;27;20442;-54
2022/02/16 09:18:15;;;;;;;1.40;1.20;;;7.90;99.90;;;;;;5148250;27;20467;-55
2022/02/16 09:20:45;;;;;;;5.43;1.60;;;7.80;99.90;;;;;;5149679;27;20528;-55
2022/02/16 09:23:12;;;;;;;2.80;1.33;;;7.80;99.90;;;;;;5150341;27;20475;-57
2022/02/16 09:25:39;;;;;;;1.77;1.03;;;7.70;99.90;;;;;;5149461;27;20509;-55
2022/02/16 09:28:07;;;;;;;1.10;0.90;;;7.70;99.90;;;;;;5148209;27;20472;-54
2022/02/16 09:30:34;;;;;;;2.50;0.90;;;7.80;99.90;;;;;;5148936;27;20784;-56
2022/02/16 09:33:05;;;;;;;3.93;0.87;;;7.70;99.90;;;;;;5148136;27;20475;-56
2022/02/16 09:35:31;;;;;;;1.10;0.80;;;7.80;99.90;;;;;;5148628;27;20541;-56
2022/02/16 09:37:59;;;;;;;1.87;0.90;;;7.90;99.90;;;;;;5148235;27;20450;-56
2022/02/16 09:40:26;;;;;;;1.30;1.10;;;7.90;99.90;;;;;;5148133;27;20481;-53
2022/02/16 09:42:52;;;;;;;1.60;1.10;;;7.90;99.90;;;;;;5147483;27;20442;-55
2022/02/16 09:45:20;;;;;;;1.13;0.90;;;8.00;99.90;;;;;;5147631;27;20492;-55
2022/02/16 09:47:46;;;;;;;3.50;0.93;;;8.00;99.90;;;;;;5147991;27;20436;-52
2022/02/16 09:50:21;;;;;;;2.20;1.00;;;8.10;99.90;;;;;;5148870;27;20441;-51
2022/02/16 09:52:47;;;;;;;1.00;0.77;;;8.10;99.90;;;;;;5151548;27;20414;-60
2022/02/16 09:55:14;;;;;;;1.00;0.60;;;8.10;99.90;;;;;;5160611;27;20438;-55
2022/02/16 09:57:41;;;;;;;1.30;0.80;;;8.00;99.90;;;;;;5160571;27;20475;-53
2022/02/16 10:00:12;;;;;;;1.53;0.90;;;8.00;99.90;;;;;;5159999;27;20468;-56
2022/02/16 10:02:42;;;;;;;1.20;0.70;;;7.90;99.90;;;;;;5159760;27;20466;-53
2022/02/16 10:05:10;;;;;;;1.87;0.90;;;7.90;99.90;;;;;;5159966;27;20465;-63
2022/02/16 10:07:41;;;;;;;4.60;0.87;;;7.80;99.90;;;;;;5159921;27;20517;-52
2022/02/16 10:10:17;;;;;;;3.10;1.17;;;7.80;99.90;;;;;;5159223;27;20457;-54
2022/02/16 10:12:47;;;;;;;3.07;1.10;;;7.70;99.90;;;;;;5159131;27;20448;-53
2022/02/16 10:15:16;;;;;;;9.00;1.10;;;7.70;99.90;;;;;;5159708;27;20422;-57
2022/02/16 10:17:45;;;;;;;1.53;0.70;;;7.60;99.90;;;;;;5159308;27;20487;-51
2022/02/16 10:20:16;;;;;;;1.20;0.97;;;7.60;99.90;;;;;;5158793;27;20447;-53
2022/02/16 10:22:46;;;;;;;1.50;1.10;;;7.60;99.90;;;;;;5158996;27;20468;-54
2022/02/16 10:25:17;;;;;;;1.30;0.80;;;7.60;99.90;;;;;;5158876;27;20450;-54
2022/02/16 10:28:06;;;;;;;2.03;1.40;;;7.50;99.90;;;;;;5159621;27;20429;-52
2022/02/16 10:30:33;;;;;;;1.63;1.10;;;7.50;99.90;;;;;;5158485;27;20480;-54
2022/02/16 10:33:21;;;;;;;1.37;0.93;;;7.50;99.90;;;;;;5159323;27;20425;-51
2022/02/16 10:35:49;;;;;;;1.20;0.90;;;7.50;99.90;;;;;;5158683;27;20479;-55
2022/02/16 10:38:17;;;;;;;1.23;0.90;;;7.50;99.90;;;;;;5158482;27;20437;-51
2022/02/16 10:40:58;;;;;;;5.70;4.03;;;7.40;99.90;;;;;;5158919;27;20472;-54
2022/02/16 10:43:32;;;;;;;3.13;1.10;;;7.40;99.90;;;;;;5158573;27;20480;-54
2022/02/16 10:45:59;;;;;;;2.13;1.30;;;7.40;99.90;;;;;;5158468;27;20460;-50
2022/02/16 10:48:26;;;;;;;1.93;1.50;;;7.30;99.90;;;;;;5158936;27;20423;-50
2022/02/16 10:50:53;;;;;;;2.87;2.13;;;7.30;99.90;;;;;;5158766;27;20427;-53
2022/02/16 10:53:29;;;;;;;1.83;1.40;;;7.20;99.90;;;;;;5158452;27;20454;-51
2022/02/16 10:55:57;;;;;;;2.03;1.57;;;7.20;99.90;;;;;;5158254;27;20422;-57
2022/02/16 10:58:28;;;;;;;1.90;1.20;;;7.20;99.90;;;;;;5158121;27;20466;-51
2022/02/16 11:00:57;;;;;;;3.07;1.20;;;7.20;99.90;;;;;;5158358;27;20456;-52
2022/02/16 11:03:27;;;;;;;2.03;1.60;;;7.30;99.90;;;;;;5158504;27;20516;-49
2022/02/16 11:05:55;;;;;;;1.40;1.03;;;7.30;99.90;;;;;;5158545;27;20474;-52
2022/02/16 11:08:25;;;;;;;3.43;1.83;;;7.40;99.90;;;;;;5158352;27;20529;-51
2022/02/16 11:10:55;;;;;;;3.30;2.20;;;7.30;99.90;;;;;;5158167;27;20426;-57
2022/02/16 11:13:25;;;;;;;2.20;1.77;;;7.30;99.90;;;;;;5158403;27;20455;-53
2022/02/16 11:15:54;;;;;;;2.60;1.50;;;7.40;99.90;;;;;;5157928;27;20478;-58
2022/02/16 11:18:25;;;;;;;2.03;1.30;;;7.50;99.90;;;;;;5158258;27;20473;-56
2022/02/16 11:21:17;;;;;;;3.50;1.73;;;7.40;99.90;;;;;;5157466;27;20525;-52
2022/02/16 11:23:47;;;;;;;1.50;1.23;;;7.50;99.90;;;;;;5142918;27;20446;-61
2022/02/16 11:26:38;;;;;;;1.80;1.20;;;7.40;99.90;;;;;;5157944;27;20524;-57
2022/02/16 11:29:31;;;;;;;1.60;1.00;;;7.50;99.90;;;;;;5158388;27;20456;-49
2022/02/16 11:32:33;;;;;;;1.93;1.37;;;7.40;99.90;;;;;;5157659;27;20476;-51
2022/02/16 11:35:18;;;;;;;1.73;1.33;;;7.40;99.90;;;;;;5157963;27;20499;-54
2022/02/16 11:37:47;;;;;;;2.53;1.90;;;7.50;99.90;;;;;;5157794;27;20458;-51
2022/02/16 11:40:15;;;;;;;3.20;1.70;;;7.50;99.90;;;;;;5157830;27;20436;-57
2022/02/16 11:42:53;;;;;;;2.23;1.50;;;7.50;99.90;;;;;;5157805;27;20463;-49
2022/02/16 11:45:21;;;;;;;2.20;1.93;;;7.50;99.90;;;;;;5157850;27;20457;-54
2022/02/16 11:47:55;;;;;;;1.40;1.20;;;7.50;99.90;;;;;;5157300;27;20505;-52
2022/02/16 11:50:40;;;;;;;2.00;1.10;;;7.50;99.90;;;;;;5157195;27;20468;-51
2022/02/16 11:53:11;;;;;;;4.40;1.97;;;7.50;99.90;;;;;;5157903;27;20542;-51
2022/02/16 11:55:40;;;;;;;1.57;1.13;;;7.50;99.90;;;;;;5158031;27;20493;-52
2022/02/16 11:58:25;;;;;;;3.90;1.77;;;7.40;99.90;;;;;;5157570;27;20440;-47
2022/02/16 12:01:03;;;;;;;1.47;1.27;;;7.40;99.90;;;;;;5157109;27;20427;-53
2022/02/16 12:03:37;;;;;;;2.10;1.23;;;7.40;99.90;;;;;;5157096;27;20454;-53
2022/02/16 12:06:09;;;;;;;1.53;1.33;;;7.40;99.90;;;;;;5156963;27;20467;-52
2022/02/16 12:08:39;;;;;;;1.77;1.27;;;7.40;99.90;;;;;;5157748;27;20460;-51
2022/02/16 12:11:22;;;;;;;3.43;1.30;;;7.40;99.90;;;;;;5157358;27;20456;-51
2022/02/16 12:13:51;;;;;;;2.20;1.50;;;7.40;99.90;;;;;;5157040;27;20423;-53
2022/02/16 12:16:22;;;;;;;2.60;1.93;;;7.40;99.90;;;;;;5157303;27;20450;-49
2022/02/16 12:18:51;;;;;;;3.83;1.80;;;7.50;99.90;;;;;;5157221;27;20412;-50
2022/02/16 12:21:24;;;;;;;1.57;1.30;;;7.50;99.90;;;;;;5157312;27;20445;-52
2022/02/16 12:23:57;;;;;;;2.03;1.67;;;7.50;99.90;;;;;;5157058;27;20439;-54
2022/02/16 12:26:24;;;;;;;2.23;1.10;;;7.50;99.90;;;;;;5156770;27;20477;-49
2022/02/16 12:28:57;;;;;;;2.47;1.33;;;7.40;99.90;;;;;;5157399;27;20433;-52
2022/02/16 12:31:27;;;;;;;1.70;1.30;;;7.40;99.90;;;;;;5157295;27;20418;-54
2022/02/16 12:34:00;;;;;;;1.60;1.50;;;7.40;99.90;;;;;;5157009;27;20426;-57
2022/02/16 12:36:27;;;;;;;1.67;1.37;;;7.40;99.90;;;;;;5157197;27;20431;-52
2022/02/16 12:38:56;;;;;;;1.70;1.10;;;7.50;99.90;;;;;;5157234;27;20481;-53
2022/02/16 12:41:30;;;;;;;1.70;1.20;;;7.50;99.90;;;;;;5156868;27;20455;-54
2022/02/16 12:43:59;;;;;;;1.93;1.37;;;7.50;99.90;;;;;;5157246;27;20472;-52
2022/02/16 12:46:29;;;;;;;2.03;1.67;;;7.60;99.90;;;;;;5156888;27;20475;-49
2022/02/16 12:48:58;;;;;;;2.43;1.43;;;7.60;99.90;;;;;;5157104;27;20463;-56
2022/02/16 12:51:27;;;;;;;1.20;1.07;;;7.60;99.90;;;;;;5157268;27;20465;-56
2022/02/16 12:53:57;;;;;;;1.43;1.30;;;7.70;99.90;;;;;;5156646;27;20483;-39
2022/02/16 12:56:31;;;;;;;3.37;1.80;;;7.70;99.90;;;;;;5163116;27;20400;-41
2022/02/16 12:59:10;;;;;;;1.93;1.10;;;7.80;99.90;;;;;;5163338;27;20408;-47
2022/02/16 13:01:41;;;;;;;1.90;1.50;;;7.80;99.90;;;;;;5163223;27;20433;-43
2022/02/16 13:04:12;;;;;;;2.90;1.20;;;7.90;99.90;;;;;;5163503;27;20433;-42
2022/02/16 13:06:40;;;;;;;2.00;1.27;;;8.00;99.90;;;;;;5163032;27;20509;-41
2022/02/16 13:09:10;;;;;;;2.90;1.40;;;8.00;99.90;;;;;;5163071;27;20411;-46
2022/02/16 13:11:50;;;;;;;1.40;1.20;;;8.10;99.90;;;;;;5163000;27;20475;-39
2022/02/16 13:14:18;;;;;;;1.30;1.03;;;8.20;99.90;;;;;;5163052;27;20440;-41
2022/02/16 13:16:57;;;;;;;1.90;1.70;;;8.20;99.90;;;;;;5162886;27;20436;-45
2022/02/16 13:19:50;;;;;;;1.33;1.10;;;8.30;99.90;;;;;;5163031;27;20412;-43
2022/02/16 13:22:22;;;;;;;1.73;1.10;;;8.40;99.90;;;;;;5162914;27;20514;-40
2022/02/16 13:24:54;;;;;;;3.50;1.33;;;8.40;99.90;;;;;;5162923;27;20441;-46
2022/02/16 13:27:22;;;;;;;1.40;1.00;;;8.50;99.90;;;;;;5162674;27;20454;-43
2022/02/16 13:30:04;;;;;;;1.87;1.10;;;8.60;99.90;;;;;;5163041;27;20405;-40
2022/02/16 13:32:33;;;;;;;1.03;0.80;;;8.60;99.90;;;;;;5162791;27;20456;-39
2022/02/16 13:35:02;;;;;;;2.23;1.10;;;8.60;99.90;;;;;;5162692;27;20413;-40
2022/02/16 13:37:36;;;;;;;1.00;0.90;;;8.70;99.90;;;;;;5162565;27;20448;-40
2022/02/16 13:40:06;;;;;;;3.17;0.90;;;8.70;99.90;;;;;;5162424;27;20506;-43
2022/02/16 13:42:34;;;;;;;1.47;1.00;;;8.80;99.90;;;;;;5162652;27;20404;-39
2022/02/16 13:45:02;;;;;;;2.63;1.43;;;8.80;99.90;;;;;;5162508;27;20460;-39
2022/02/16 13:47:29;;;;;;;1.63;1.53;;;8.90;99.90;;;;;;5162408;27;20474;-39
2022/02/16 13:49:58;;;;;;;2.07;1.87;;;8.90;99.90;;;;;;5162470;27;20469;-41
2022/02/16 13:52:34;;;;;;;1.50;1.30;;;8.90;99.90;;;;;;5162430;27;20408;-41
2022/02/16 13:55:01;;;;;;;2.53;1.37;;;9.00;99.90;;;;;;5162449;27;20409;-42
2022/02/16 13:57:30;;;;;;;1.17;1.00;;;9.00;99.90;;;;;;5162354;27;20428;-44
2022/02/16 14:00:01;;;;;;;3.17;2.17;;;9.00;99.90;;;;;;5162201;27;20416;-42
2022/02/16 14:02:30;;;;;;;1.47;1.10;;;9.10;99.90;;;;;;5162179;27;20408;-42
2022/02/16 14:04:58;;;;;;;1.40;1.00;;;9.10;99.90;;;;;;5162042;27;20439;-39
2022/02/16 14:07:25;;;;;;;1.37;1.20;;;9.10;99.90;;;;;;5162015;27;20535;-43
2022/02/16 14:09:54;;;;;;;1.77;1.17;;;9.10;99.90;;;;;;5162011;27;20429;-44
2022/02/16 14:12:21;;;;;;;2.07;1.17;;;9.10;99.90;;;;;;5161605;27;20461;-43
2022/02/16 14:14:50;;;;;;;2.07;1.07;;;9.20;99.90;;;;;;5162027;27;20472;-45
2022/02/16 14:17:19;;;;;;;1.23;0.87;;;9.20;99.90;;;;;;5161867;27;20404;-45
2022/02/16 14:19:48;;;;;;;1.40;0.90;;;9.20;99.90;;;;;;5162100;27;20409;-45
2022/02/16 14:22:15;;;;;;;1.53;0.90;;;9.30;99.90;;;;;;5161845;27;20420;-42
2022/02/16 14:24:44;;;;;;;1.30;0.90;;;9.30;99.90;;;;;;5161814;27;20428;-44
2022/02/16 14:27:12;;;;;;;1.10;0.80;;;9.30;99.90;;;;;;5161651;27;20439;-40
2022/02/16 14:29:42;;;;;;;1.73;0.80;;;9.30;99.90;;;;;;5161633;27;20432;-40
2022/02/16 14:32:11;;;;;;;1.60;1.20;;;9.40;99.90;;;;;;5161715;27;20425;-41
2022/02/16 14:34:40;;;;;;;3.13;1.40;;;9.40;99.90;;;;;;5161633;27;20462;-41
2022/02/16 14:37:07;;;;;;;1.30;1.10;;;9.40;99.90;;;;;;5161641;27;20415;-43
2022/02/16 14:39:36;;;;;;;2.87;1.53;;;9.40;99.90;;;;;;5161421;27;20416;-43
2022/02/16 14:42:06;;;;;;;1.50;1.40;;;9.40;99.90;;;;;;5161545;27;20409;-44
2022/02/16 14:44:34;;;;;;;1.97;1.43;;;9.50;99.90;;;;;;5161493;27;20421;-42
2022/02/16 14:47:02;;;;;;;5.27;1.13;;;9.40;99.90;;;;;;5161384;27;20442;-43
2022/02/16 14:49:31;;;;;;;2.60;1.67;;;9.50;99.90;;;;;;5161249;27;20510;-43
2022/02/16 14:51:58;;;;;;;3.57;1.47;;;9.50;99.90;;;;;;5161261;27;20428;-40
2022/02/16 14:54:28;;;;;;;6.07;1.50;;;9.60;99.90;;;;;;5161200;27;20428;-42
2022/02/16 14:56:57;;;;;;;5.50;1.43;;;9.70;99.90;;;;;;5161073;27;20432;-40
2022/02/16 14:59:27;;;;;;;4.93;1.13;;;9.70;99.90;;;;;;5161155;27;20432;-42
2022/02/16 15:02:01;;;;;;;1.57;1.07;;;9.80;99.90;;;;;;5160917;27;20420;-39
2022/02/16 15:04:27;;;;;;;1.60;0.90;;;9.80;99.90;;;;;;5161156;27;20405;-39
2022/02/16 15:06:54;;;;;;;2.50;1.60;;;9.90;99.90;;;;;;5160882;27;20447;-43
2022/02/16 15:09:23;;;;;;;2.87;1.63;;;9.90;99.90;;;;;;5160866;27;20413;-43
2022/02/16 15:11:50;;;;;;;1.10;0.90;;;10.00;99.90;;;;;;5160998;27;20467;-41
2022/02/16 15:14:20;;;;;;;2.90;0.97;;;10.00;99.90;;;;;;5160381;27;20439;-41
2022/02/16 15:16:48;;;;;;;1.60;1.10;;;10.00;99.90;;;;;;5160735;27;20408;-41
2022/02/16 15:19:17;;;;;;;1.33;1.00;;;10.10;99.90;;;;;;5160552;27;20456;-39
2022/02/16 15:21:44;;;;;;;1.50;1.20;;;10.10;99.90;;;;;;5160633;27;20443;-43
2022/02/16 15:24:11;;;;;;;2.90;0.80;;;10.10;99.90;;;;;;5160359;27;20432;-43
2022/02/16 15:26:38;;;;;;;1.20;1.10;;;10.10;99.90;;;;;;5160587;27;20409;-39
2022/02/16 15:29:09;;;;;;;1.27;0.80;;;10.10;99.90;;;;;;5160476;27;20473;-40
2022/02/16 15:31:36;;;;;;;1.07;0.67;;;10.10;99.90;;;;;;5160510;27;20460;-42
2022/02/16 15:34:05;;;;;;;1.00;0.70;;;10.20;99.90;;;;;;5160501;27;20432;-40
2022/02/16 15:36:34;;;;;;;2.33;1.07;;;10.20;99.90;;;;;;5160412;27;20443;-45
2022/02/16 15:39:03;;;;;;;3.77;0.80;;;10.20;99.90;;;;;;5160431;27;20417;-41
2022/02/16 15:41:33;;;;;;;1.10;0.70;;;10.10;99.90;;;;;;5160252;27;20495;-40
2022/02/16 15:44:07;;;;;;;3.87;0.83;;;10.10;99.90;;;;;;5160224;27;20440;-44
2022/02/16 15:46:38;;;;;;;1.10;0.90;;;10.10;99.90;;;;;;5160239;27;20442;-42
2022/02/16 15:49:07;;;;;;;2.37;0.90;;;10.10;99.90;;;;;;5160214;27;20444;-46
2022/02/16 15:51:35;;;;;;;2.10;1.03;;;10.20;99.90;;;;;;5160252;27;20425;-40
2022/02/16 15:54:03;;;;;;;1.60;0.93;;;10.20;99.90;;;;;;5160134;27;20432;-38
2022/02/16 15:56:30;;;;;;;1.10;0.90;;;10.20;99.90;;;;;;5160206;27;20413;-39
2022/02/16 15:58:58;;;;;;;1.20;0.80;;;10.20;99.90;;;;;;5160129;27;20566;-44
2022/02/16 16:01:26;;;;;;;2.33;0.70;;;10.20;99.90;;;;;;5160188;27;20416;-41
2022/02/16 16:03:56;;;;;;;1.00;0.70;;;10.20;99.90;;;;;;5160011;27;20456;-44
2022/02/16 16:06:25;;;;;;;1.07;0.80;;;10.20;99.90;;;;;;5159371;28;20444;-40
2022/02/16 16:08:53;;;;;;;1.30;1.13;;;10.10;99.90;;;;;;5159740;27;20638;-44
2022/02/16 16:11:19;;;;;;;1.23;0.90;;;10.00;99.90;;;;;;5159850;27;20412;-41
2022/02/16 16:13:46;;;;;;;2.50;1.50;;;10.00;99.90;;;;;;5159991;27;20428;-42
2022/02/16 16:16:15;;;;;;;2.23;1.53;;;10.00;99.90;;;;;;5159917;27;20420;-41
2022/02/16 16:18:43;;;;;;;1.33;0.90;;;9.90;99.90;;;;;;5159931;27;20435;-41
2022/02/16 16:21:12;;;;;;;1.00;0.90;;;9.90;99.90;;;;;;5159900;27;20499;-42
2022/02/16 16:23:39;;;;;;;4.90;1.20;;;9.90;99.90;;;;;;5159831;27;20428;-42
2022/02/16 16:26:09;;;;;;;1.80;1.00;;;9.90;99.90;;;;;;5159972;27;20511;-40
2022/02/16 16:28:36;;;;;;;2.23;1.10;;;10.00;99.90;;;;;;5163722;27;20451;-41
2022/02/16 16:31:04;;;;;;;1.70;1.47;;;9.80;99.90;;;;;;5163996;27;20436;-41
2022/02/16 16:33:33;;;;;;;1.97;1.17;;;9.80;99.90;;;;;;5164019;27;20400;-45
2022/02/16 16:36:02;;;;;;;1.20;1.10;;;9.80;99.90;;;;;;5163929;27;20436;-39
2022/02/16 16:38:28;;;;;;;1.40;1.13;;;9.90;99.90;;;;;;5163888;27;20411;-39
2022/02/16 16:40:55;;;;;;;1.53;1.10;;;9.90;99.90;;;;;;5163760;27;20416;-46
2022/02/16 16:43:27;;;;;;;1.53;1.00;;;9.90;99.90;;;;;;5163767;27;20459;-47
2022/02/16 16:45:57;;;;;;;1.40;0.80;;;9.90;99.90;;;;;;5163786;27;20424;-44